createdAt,value
2023-02-27T00:02:31.946Z,1.03
2023-02-27T00:05:24.338Z,1.01
2023-02-27T00:08:16.505Z,1.01
2023-02-27T00:11:08.759Z,1.02
2023-02-27T00:14:01.230Z,1.02
2023-02-27T00:16:53.428Z,1.04
2023-02-27T00:19:45.599Z,1.04
2023-02-27T00:22:26.395Z,1.04
2023-02-27T00:25:18.683Z,1.05
2023-02-27T00:28:10.861Z,1.04
2023-02-27T00:30:52.826Z,1.05
2023-02-27T00:33:45.339Z,1.06
2023-02-27T00:36:18.157Z,1.06
2023-02-27T00:39:10.291Z,1.07
2023-02-27T00:42:02.445Z,1.07
2023-02-27T00:44:54.527Z,1.08
2023-02-27T00:47:46.684Z,1.09
2023-02-27T00:50:38.797Z,1.10
2023-02-27T00:53:30.907Z,1.10
2023-02-27T00:56:23.004Z,1.12
2023-02-27T00:59:15.206Z,1.13
2023-02-27T01:02:07.317Z,1.13
2023-02-27T01:04:59.398Z,1.14
2023-02-27T01:07:39.940Z,1.16
2023-02-27T01:10:32.203Z,1.17
2023-02-27T01:13:24.459Z,1.16
2023-02-27T01:16:16.598Z,1.17
2023-02-27T01:19:08.863Z,1.18
2023-02-27T01:22:01.018Z,1.19
2023-02-27T01:24:53.140Z,1.19
2023-02-27T01:27:45.418Z,1.20
2023-02-27T01:30:37.717Z,1.20
2023-02-27T01:33:29.977Z,1.22
2023-02-27T01:36:22.216Z,1.25
2023-02-27T01:39:14.277Z,1.28
2023-02-27T01:42:07.589Z,1.30
2023-02-27T01:45:30.200Z,1.32
2023-02-27T01:48:25.951Z,1.32
2023-02-27T01:51:21.109Z,1.34
2023-02-27T01:54:16.798Z,1.35
2023-02-27T01:57:10.101Z,1.36
2023-02-27T02:00:02.582Z,1.36
2023-02-27T02:03:02.648Z,1.36
2023-02-27T02:05:56.824Z,1.35
2023-02-27T02:08:48.772Z,1.36
2023-02-27T02:11:42.564Z,1.35
2023-02-27T02:14:34.659Z,1.35
2023-02-27T02:17:40.073Z,1.35
2023-02-27T02:20:58.823Z,1.37
2023-02-27T02:24:29.302Z,1.37
2023-02-27T02:27:35.596Z,1.36
2023-02-27T02:30:58.418Z,1.36
2023-02-27T02:34:19.527Z,1.35
2023-02-27T02:38:04.438Z,1.34
2023-02-27T02:41:00.263Z,1.32
2023-02-27T02:44:05.976Z,1.33
2023-02-27T02:47:05.987Z,1.33
2023-02-27T02:50:03.359Z,1.34
2023-02-27T02:53:06.096Z,1.36
2023-02-27T02:56:05.778Z,1.36
2023-02-27T02:59:02.926Z,1.35
2023-02-27T03:01:59.372Z,1.36
2023-02-27T03:04:56.978Z,1.36
2023-02-27T03:07:54.153Z,1.34
2023-02-27T03:10:50.561Z,1.33
2023-02-27T03:13:47.233Z,1.34
2023-02-27T03:16:43.508Z,1.33
2023-02-27T03:19:42.189Z,1.36
2023-02-27T03:22:38.598Z,1.35
2023-02-27T03:25:32.591Z,1.37
2023-02-27T03:28:30.087Z,1.39
2023-02-27T03:31:28.873Z,1.39
2023-02-27T03:34:28.436Z,1.37
2023-02-27T03:37:28.331Z,1.37
2023-02-27T03:40:28.849Z,1.35
2023-02-27T03:43:31.452Z,1.33
2023-02-27T03:46:27.787Z,1.33
2023-02-27T03:49:19.938Z,1.31
2023-02-27T03:52:12.349Z,1.29
2023-02-27T03:55:10.765Z,1.28
2023-02-27T03:58:03.389Z,1.27
2023-02-27T04:00:55.465Z,1.26
2023-02-27T04:03:54.910Z,1.23
2023-02-27T04:07:12.321Z,1.23
2023-02-27T04:10:18.251Z,1.22
2023-02-27T04:13:34.550Z,1.24
2023-02-27T04:16:52.010Z,1.22
2023-02-27T04:20:00.582Z,1.20
2023-02-27T04:23:01.018Z,1.20
2023-02-27T04:26:08.990Z,1.19
2023-02-27T04:29:08.446Z,1.20
2023-02-27T04:32:07.519Z,1.21
2023-02-27T04:35:02.884Z,1.21
2023-02-27T04:38:00.819Z,1.22
2023-02-27T04:40:59.119Z,1.21
2023-02-27T04:43:54.944Z,1.21
2023-02-27T04:46:49.214Z,1.21
2023-02-27T04:49:46.823Z,1.22
2023-02-27T04:52:42.724Z,1.22
2023-02-27T04:55:40.074Z,1.20
2023-02-27T04:58:38.298Z,1.19
2023-02-27T05:01:36.801Z,1.18
2023-02-27T05:04:32.528Z,1.16
2023-02-27T05:07:27.851Z,1.17
2023-02-27T05:10:27.944Z,1.18
2023-02-27T05:13:27.371Z,1.18
2023-02-27T05:16:28.017Z,1.16
2023-02-27T05:19:21.993Z,1.16
2023-02-27T05:22:23.671Z,1.16
2023-02-27T05:25:24.268Z,1.15
2023-02-27T05:28:22.771Z,1.16
2023-02-27T05:31:22.176Z,1.16
2023-02-27T05:34:19.937Z,1.16
2023-02-27T05:37:17.694Z,1.16
2023-02-27T05:40:16.402Z,1.15
2023-02-27T05:43:12.024Z,1.14
2023-02-27T05:46:11.505Z,1.15
2023-02-27T05:49:07.154Z,1.14
2023-02-27T05:52:02.637Z,1.14
2023-02-27T05:55:00.725Z,1.15
2023-02-27T05:57:58.986Z,1.15
2023-02-27T06:00:55.301Z,1.13
2023-02-27T06:03:35.496Z,1.12
2023-02-27T06:06:27.989Z,1.12
2023-02-27T06:09:20.539Z,1.13
2023-02-27T06:12:12.828Z,1.15
2023-02-27T06:15:05.016Z,1.14
2023-02-27T06:17:58.024Z,1.13
2023-02-27T06:20:50.432Z,1.13
2023-02-27T06:23:42.677Z,1.14
2023-02-27T06:26:34.780Z,1.18
2023-02-27T06:29:11.776Z,1.18
2023-02-27T06:32:04.078Z,1.20
2023-02-27T06:34:56.314Z,1.23
2023-02-27T06:37:48.362Z,1.29
2023-02-27T06:40:40.460Z,1.32
2023-02-27T06:43:34.728Z,1.35
2023-02-27T06:46:27.329Z,1.40
2023-02-27T06:49:19.633Z,1.44
2023-02-27T06:52:11.738Z,1.47
2023-02-27T06:55:04.736Z,1.50
2023-02-27T06:57:56.992Z,1.55
2023-02-27T07:00:49.082Z,1.60
2023-02-27T07:03:41.360Z,1.64
2023-02-27T07:07:34.791Z,1.68
2023-02-27T07:09:45.533Z,1.73
2023-02-27T07:12:37.689Z,1.77
2023-02-27T07:15:29.861Z,1.83
2023-02-27T07:18:22.187Z,1.91
2023-02-27T07:21:15.583Z,2.04
2023-02-27T07:24:09.352Z,2.19
2023-02-27T07:27:01.399Z,2.35
2023-02-27T07:29:54.016Z,2.50
2023-02-27T07:32:46.391Z,2.61
2023-02-27T07:35:38.784Z,2.72
2023-02-27T07:38:32.320Z,2.80
2023-02-27T07:41:30.382Z,2.90
2023-02-27T07:44:23.420Z,3.04
2023-02-27T07:47:17.625Z,3.19
2023-02-27T07:49:55.070Z,3.29
2023-02-27T07:52:47.363Z,3.31
2023-02-27T07:55:39.496Z,3.37
2023-02-27T07:58:31.585Z,3.41
2023-02-27T08:01:23.719Z,3.46
2023-02-27T08:04:15.942Z,3.48
2023-02-27T08:07:08.276Z,3.47
2023-02-27T08:10:00.353Z,3.48
2023-02-27T08:12:32.595Z,3.52
2023-02-27T08:15:25.466Z,3.56
2023-02-27T08:18:06.605Z,3.57
2023-02-27T08:20:59.219Z,3.56
2023-02-27T08:23:51.603Z,3.54
2023-02-27T08:26:43.688Z,3.45
2023-02-27T08:29:36.029Z,3.33
2023-02-27T08:32:28.417Z,3.22
2023-02-27T08:35:20.975Z,3.10
2023-02-27T08:38:13.135Z,3.02
2023-02-27T08:41:05.692Z,3.03
2023-02-27T08:43:58.116Z,3.07
2023-02-27T08:46:50.523Z,3.14
2023-02-27T08:49:42.582Z,3.21
2023-02-27T08:52:34.647Z,3.25
2023-02-27T08:55:26.777Z,3.28
2023-02-27T08:58:19.294Z,3.30
2023-02-27T09:01:11.688Z,3.27
2023-02-27T09:04:05.483Z,3.17
2023-02-27T09:06:58.470Z,3.09
2023-02-27T09:09:50.608Z,3.06
2023-02-27T09:12:40.364Z,3.04
2023-02-27T09:15:32.991Z,3.02
2023-02-27T09:18:06.866Z,3.03
2023-02-27T09:20:57.510Z,3.09
2023-02-27T09:23:49.717Z,3.19
2023-02-27T09:26:46.143Z,3.56
2023-02-27T09:29:38.720Z,4.18
2023-02-27T09:32:31.029Z,5.98
2023-02-27T09:35:23.334Z,7.52
2023-02-27T09:38:15.400Z,7.35
2023-02-27T09:41:08.811Z,6.85
2023-02-27T09:44:01.581Z,6.42
2023-02-27T09:46:55.597Z,6.10
2023-02-27T09:49:58.834Z,5.81
2023-02-27T09:52:51.017Z,5.99
2023-02-27T09:55:46.581Z,6.84
2023-02-27T09:58:52.322Z,6.47
2023-02-27T10:01:49.988Z,5.90
2023-02-27T10:04:50.797Z,5.74
2023-02-27T10:07:57.109Z,5.64
2023-02-27T10:11:00.394Z,5.65
2023-02-27T10:14:00.924Z,5.77
2023-02-27T10:16:55.073Z,6.11
2023-02-27T10:19:48.234Z,6.22
2023-02-27T10:22:45.480Z,6.36
2023-02-27T10:25:45.263Z,6.53
2023-02-27T10:28:37.411Z,6.61
2023-02-27T10:31:34.386Z,6.80
2023-02-27T10:34:16.189Z,7.09
2023-02-27T10:37:12.900Z,7.60
2023-02-27T10:39:57.485Z,8.20
2023-02-27T10:42:50.762Z,7.83
2023-02-27T10:45:43.916Z,7.27
2023-02-27T10:48:36.133Z,6.80
2023-02-27T10:51:31.280Z,6.40
2023-02-27T10:54:28.062Z,6.04
2023-02-27T10:57:31.398Z,5.67
2023-02-27T11:00:46.105Z,5.41
2023-02-27T11:03:41.495Z,5.19
2023-02-27T11:06:34.935Z,4.92
2023-02-27T11:09:30.122Z,4.71
2023-02-27T11:12:27.578Z,4.56
2023-02-27T11:15:28.021Z,4.36
2023-02-27T11:18:28.768Z,4.15
2023-02-27T11:21:24.565Z,4.06
2023-02-27T11:24:22.591Z,4.07
2023-02-27T11:27:26.847Z,4.15
2023-02-27T11:30:28.263Z,4.22
2023-02-27T11:33:22.619Z,4.40
2023-02-27T11:36:17.452Z,4.98
2023-02-27T11:39:23.498Z,5.74
2023-02-27T11:42:21.759Z,5.69
2023-02-27T11:45:02.327Z,5.52
2023-02-27T11:48:00.342Z,5.24
2023-02-27T11:51:20.346Z,5.01
2023-02-27T11:54:32.443Z,4.79
2023-02-27T11:57:29.072Z,4.61
2023-02-27T12:00:25.182Z,4.50
2023-02-27T12:03:24.219Z,4.45
2023-02-27T12:06:20.822Z,4.43
2023-02-27T12:09:32.593Z,4.47
2023-02-27T12:12:30.359Z,4.57
2023-02-27T12:15:28.893Z,4.65
2023-02-27T12:18:24.926Z,4.76
2023-02-27T12:21:20.768Z,4.72
2023-02-27T12:24:19.710Z,4.56
2023-02-27T12:27:19.351Z,4.48
2023-02-27T12:30:18.883Z,4.39
2023-02-27T12:32:59.065Z,4.27
2023-02-27T12:35:59.194Z,4.20
2023-02-27T12:38:51.531Z,4.12
2023-02-27T12:42:04.022Z,4.06
2023-02-27T12:45:20.285Z,4.01
2023-02-27T12:48:25.820Z,4.03
2023-02-27T12:51:32.554Z,4.05
2023-02-27T12:54:36.864Z,4.08
2023-02-27T12:57:40.261Z,4.05
2023-02-27T13:00:41.816Z,4.03
2023-02-27T13:03:49.311Z,4.04
2023-02-27T13:06:47.427Z,4.07
2023-02-27T13:09:48.622Z,4.17
2023-02-27T13:12:48.078Z,4.30
2023-02-27T13:15:46.219Z,4.24
2023-02-27T13:18:45.443Z,4.20
2023-02-27T13:21:41.613Z,4.11
2023-02-27T13:24:35.284Z,4.04
2023-02-27T13:27:33.717Z,4.05
2023-02-27T13:30:31.450Z,4.07
2023-02-27T13:33:30.961Z,4.07
2023-02-27T13:36:27.505Z,4.02
2023-02-27T13:39:42.465Z,4.00
2023-02-27T13:42:40.121Z,3.98
2023-02-27T13:45:58.197Z,3.87
2023-02-27T13:48:54.607Z,3.83
2023-02-27T13:51:53.406Z,3.89
2023-02-27T13:54:45.846Z,3.94
2023-02-27T13:57:39.255Z,3.99
2023-02-27T14:00:34.092Z,4.04
2023-02-27T14:03:30.029Z,4.04
2023-02-27T14:06:24.329Z,4.00
2023-02-27T14:09:21.501Z,3.82
2023-02-27T14:12:00.808Z,3.75
2023-02-27T14:14:53.489Z,3.66
2023-02-27T14:17:47.048Z,3.63
2023-02-27T14:20:54.691Z,3.54
2023-02-27T14:23:47.588Z,3.43
2023-02-27T14:26:41.728Z,3.44
2023-02-27T14:29:34.082Z,3.57
2023-02-27T14:32:31.172Z,3.68
2023-02-27T14:35:23.598Z,3.77
2023-02-27T14:38:20.357Z,3.80
2023-02-27T14:41:48.152Z,3.79
2023-02-27T14:44:45.062Z,3.72
2023-02-27T14:47:40.324Z,3.64
2023-02-27T14:50:36.647Z,3.54
2023-02-27T14:53:29.522Z,3.43
2023-02-27T14:56:20.773Z,3.40
2023-02-27T14:59:25.536Z,3.37
2023-02-27T15:02:24.866Z,3.37
2023-02-27T15:05:23.844Z,3.36
2023-02-27T15:08:21.209Z,3.34
2023-02-27T15:11:18.364Z,3.28
2023-02-27T15:14:21.182Z,3.26
2023-02-27T15:17:20.267Z,3.23
2023-02-27T15:20:29.678Z,3.19
2023-02-27T15:23:28.036Z,3.16
2023-02-27T15:26:20.142Z,3.16
2023-02-27T15:29:27.110Z,3.14
2023-02-27T15:32:42.938Z,3.09
2023-02-27T15:35:42.740Z,3.04
2023-02-27T15:38:38.019Z,3.00
2023-02-27T15:41:30.290Z,2.96
2023-02-27T15:44:25.761Z,2.92
2023-02-27T15:47:25.075Z,2.84
2023-02-27T15:50:29.329Z,2.82
2023-02-27T15:53:23.757Z,2.77
2023-02-27T15:56:16.550Z,2.70
2023-02-27T15:59:12.632Z,2.65
2023-02-27T16:02:05.237Z,2.60
2023-02-27T16:04:57.811Z,2.53
2023-02-27T16:07:51.038Z,2.52
2023-02-27T16:10:45.946Z,2.47
2023-02-27T16:13:42.303Z,2.44
2023-02-27T16:16:36.151Z,2.43
2023-02-27T16:19:27.986Z,2.43
2023-02-27T16:22:21.589Z,2.39
2023-02-27T16:25:22.204Z,2.33
2023-02-27T16:27:54.240Z,2.29
2023-02-27T16:30:46.351Z,2.23
2023-02-27T16:33:39.328Z,2.14
2023-02-27T16:36:37.522Z,2.05
2023-02-27T16:39:13.639Z,1.99
2023-02-27T16:42:05.754Z,1.94
2023-02-27T16:44:57.907Z,1.87
2023-02-27T16:47:52.112Z,1.81
2023-02-27T16:50:45.271Z,1.76
2023-02-27T16:53:37.374Z,1.71
2023-02-27T16:56:13.594Z,1.66
2023-02-27T16:59:05.790Z,1.61
2023-02-27T17:01:58.629Z,1.57
2023-02-27T17:04:52.164Z,1.52
2023-02-27T17:07:44.693Z,1.46
2023-02-27T17:10:37.088Z,1.43
2023-02-27T17:13:29.299Z,1.39
2023-02-27T17:16:21.424Z,1.35
2023-02-27T17:19:14.212Z,1.31
2023-02-27T17:21:55.815Z,1.31
2023-02-27T17:24:47.859Z,1.28
2023-02-27T17:27:40.219Z,1.27
2023-02-27T17:30:32.320Z,1.25
2023-02-27T17:33:24.483Z,1.24
2023-02-27T17:36:16.704Z,1.24
2023-02-27T17:39:11.286Z,1.23
2023-02-27T17:42:03.621Z,1.20
2023-02-27T17:44:55.801Z,1.18
2023-02-27T17:47:48.308Z,1.15
2023-02-27T17:50:41.658Z,1.13
2023-02-27T17:53:33.109Z,1.08
2023-02-27T17:56:26.008Z,1.03
2023-02-27T17:59:19.644Z,1.00
2023-02-27T18:01:55.646Z,0.99
2023-02-27T18:04:56.663Z,0.98
2023-02-27T18:07:28.831Z,0.96
2023-02-27T18:10:21.472Z,0.98
2023-02-27T18:13:13.766Z,0.98
2023-02-27T18:15:54.962Z,0.98
2023-02-27T18:18:47.959Z,0.99
2023-02-27T18:21:42.279Z,1.00
2023-02-27T18:24:35.442Z,0.99
2023-02-27T18:27:29.184Z,0.97
2023-02-27T18:30:22.105Z,0.95
2023-02-27T18:33:14.169Z,0.93
2023-02-27T18:36:06.837Z,0.94
2023-02-27T18:38:48.119Z,0.94
2023-02-27T18:41:40.689Z,0.93
2023-02-27T18:44:32.974Z,0.92
2023-02-27T18:47:25.472Z,0.92
2023-02-27T18:50:18.059Z,0.91
2023-02-27T18:53:10.171Z,0.91
2023-02-27T18:56:06.748Z,0.92
2023-02-27T18:59:03.013Z,0.93
2023-02-27T19:01:55.178Z,0.95
2023-02-27T19:04:48.200Z,0.95
2023-02-27T19:07:40.760Z,0.93
2023-02-27T19:10:34.862Z,0.94
2023-02-27T19:13:13.661Z,0.97
2023-02-27T19:16:06.870Z,1.01
2023-02-27T19:18:59.901Z,1.03
2023-02-27T19:21:52.087Z,1.05
2023-02-27T19:24:45.349Z,1.07
2023-02-27T19:27:38.062Z,1.08
2023-02-27T19:30:30.239Z,1.07
2023-02-27T19:33:23.033Z,1.09
2023-02-27T19:36:17.722Z,1.12
2023-02-27T19:39:11.679Z,1.15
2023-02-27T19:42:03.937Z,1.18
2023-02-27T19:44:56.124Z,1.20
2023-02-27T19:47:48.258Z,1.22
2023-02-27T19:50:42.035Z,1.24
2023-02-27T19:53:35.679Z,1.27
2023-02-27T19:56:30.615Z,1.27
2023-02-27T19:59:24.630Z,1.28
2023-02-27T20:02:16.764Z,1.30
2023-02-27T20:05:12.096Z,1.31
2023-02-27T20:08:04.444Z,1.31
2023-02-27T20:10:58.531Z,1.35
2023-02-27T20:13:49.465Z,1.36
2023-02-27T20:16:42.362Z,1.33
2023-02-27T20:19:34.748Z,1.35
2023-02-27T20:22:27.454Z,1.35
2023-02-27T20:25:19.843Z,1.36
2023-02-27T20:27:54.802Z,1.36
2023-02-27T20:30:46.899Z,1.34
2023-02-27T20:33:39.328Z,1.36
2023-02-27T20:36:31.448Z,1.38
2023-02-27T20:39:24.347Z,1.40
2023-02-27T20:42:17.123Z,1.41
2023-02-27T20:45:11.926Z,1.43
2023-02-27T20:47:48.233Z,1.44
2023-02-27T20:50:41.243Z,1.45
2023-02-27T20:53:33.983Z,1.46
2023-02-27T20:56:29.052Z,1.46
2023-02-27T20:59:23.421Z,1.45
2023-02-27T21:02:15.845Z,1.45
2023-02-27T21:05:09.537Z,1.46
2023-02-27T21:08:01.662Z,1.48
2023-02-27T21:10:54.515Z,1.47
2023-02-27T21:13:47.284Z,1.47
2023-02-27T21:16:40.842Z,1.43
2023-02-27T21:19:33.235Z,1.43
2023-02-27T21:22:25.470Z,1.44
2023-02-27T21:25:17.839Z,1.41
2023-02-27T21:28:10.157Z,1.36
2023-02-27T21:31:07.792Z,1.39
2023-02-27T21:34:01.447Z,1.41
2023-02-27T21:36:54.094Z,1.36
2023-02-27T21:39:50.514Z,1.33
2023-02-27T21:42:43.543Z,1.36
2023-02-27T21:45:37.155Z,1.39
2023-02-27T21:48:29.959Z,1.41
2023-02-27T21:51:38.231Z,1.42
2023-02-27T21:54:31.413Z,1.43
2023-02-27T21:57:23.489Z,1.44
2023-02-27T22:00:16.807Z,1.45
2023-02-27T22:03:08.966Z,1.48
2023-02-27T22:06:01.091Z,1.50
2023-02-27T22:08:57.402Z,1.47
2023-02-27T22:11:50.106Z,1.48
2023-02-27T22:14:43.511Z,1.49
2023-02-27T22:17:35.585Z,1.50
2023-02-27T22:20:27.705Z,1.49
2023-02-27T22:23:19.934Z,1.47
2023-02-27T22:26:14.770Z,1.47
2023-02-27T22:29:07.640Z,1.44
2023-02-27T22:31:42.475Z,1.42
2023-02-27T22:34:34.805Z,1.42
2023-02-27T22:37:27.122Z,1.44
2023-02-27T22:40:20.337Z,1.46
2023-02-27T22:43:12.452Z,1.46
2023-02-27T22:46:05.032Z,1.45
2023-02-27T22:48:58.890Z,1.44
2023-02-27T22:51:52.053Z,1.43
2023-02-27T22:54:44.454Z,1.43
2023-02-27T22:57:36.536Z,1.43
2023-02-27T23:00:29.114Z,1.43
2023-02-27T23:03:21.159Z,1.45
2023-02-27T23:06:15.238Z,1.45
2023-02-27T23:09:07.221Z,1.44
2023-02-27T23:12:02.068Z,1.41
2023-02-27T23:14:54.544Z,1.41
2023-02-27T23:17:57.975Z,1.41
2023-02-27T23:20:50.671Z,1.41
2023-02-27T23:23:43.078Z,1.39
2023-02-27T23:26:37.587Z,1.39
2023-02-27T23:29:29.764Z,1.37
2023-02-27T23:32:21.967Z,1.37
2023-02-27T23:35:16.236Z,1.37
2023-02-27T23:38:08.642Z,1.37
2023-02-27T23:41:05.191Z,1.38
2023-02-27T23:43:57.524Z,1.38
2023-02-27T23:46:49.777Z,1.37
2023-02-27T23:49:42.524Z,1.37
2023-02-27T23:52:34.646Z,1.36
2023-02-27T23:55:29.272Z,1.34
2023-02-27T23:58:21.376Z,1.32
